createdAt,value
2018-12-16T00:01:22.834Z,95614.95
2018-12-16T00:03:51.138Z,95603.53
2018-12-16T00:06:19.422Z,95608.61
2018-12-16T00:08:47.651Z,95612.68
2018-12-16T00:11:15.872Z,95616.95
2018-12-16T00:13:44.348Z,95612.84
2018-12-16T00:16:12.571Z,95619.21
2018-12-16T00:18:40.988Z,95619.21
2018-12-16T00:21:09.256Z,95614.00
2018-12-16T00:23:37.482Z,95612.41
2018-12-16T00:26:05.703Z,95611.41
2018-12-16T00:28:34.033Z,95601.92
2018-12-16T00:31:02.263Z,95592.28
2018-12-16T00:33:30.643Z,95587.22
2018-12-16T00:35:58.936Z,95569.59
2018-12-16T00:38:27.334Z,95580.33
2018-12-16T00:40:55.571Z,95577.41
2018-12-16T00:43:23.835Z,95581.99
2018-12-16T00:45:52.063Z,95583.95
2018-12-16T00:48:20.520Z,95587.27
2018-12-16T00:50:48.759Z,95584.33
2018-12-16T00:53:17.091Z,95579.93
2018-12-16T00:55:45.380Z,95565.76
2018-12-16T00:58:13.606Z,95554.76
2018-12-16T01:00:41.935Z,95552.99
2018-12-16T01:03:10.387Z,95550.69
2018-12-16T01:05:38.738Z,95544.13
2018-12-16T01:08:06.975Z,95538.91
2018-12-16T01:10:35.190Z,95537.92
2018-12-16T01:13:03.422Z,95527.21
2018-12-16T01:15:31.870Z,95528.91
2018-12-16T01:18:00.105Z,95521.03
2018-12-16T01:20:28.400Z,95508.70
2018-12-16T01:22:56.616Z,95510.68
2018-12-16T01:25:25.080Z,95502.89
2018-12-16T01:27:53.307Z,95493.53
2018-12-16T01:30:21.739Z,95489.34
2018-12-16T01:32:49.997Z,95486.90
2018-12-16T01:35:18.278Z,95487.31
2018-12-16T01:37:46.549Z,95470.01
2018-12-16T01:40:14.966Z,95466.25
2018-12-16T01:42:43.190Z,95451.78
2018-12-16T01:45:11.486Z,95452.55
2018-12-16T01:47:39.741Z,95446.31
2018-12-16T01:50:08.176Z,95443.44
2018-12-16T01:52:36.407Z,95440.19
2018-12-16T01:55:05.934Z,95440.92
2018-12-16T01:57:34.197Z,95448.45
2018-12-16T02:00:02.901Z,95450.07
2018-12-16T02:02:31.375Z,95452.97
2018-12-16T02:04:59.603Z,95463.45
2018-12-16T02:07:27.826Z,95459.34
2018-12-16T02:09:56.047Z,95447.90
2018-12-16T02:12:24.375Z,95445.11
2018-12-16T02:14:52.591Z,95449.22
2018-12-16T02:17:20.874Z,95442.50
2018-12-16T02:19:49.306Z,95438.28
2018-12-16T02:22:17.588Z,95433.79
2018-12-16T02:24:45.854Z,95427.41
2018-12-16T02:27:14.179Z,95428.05
2018-12-16T02:29:42.438Z,95420.66
2018-12-16T02:32:10.787Z,95421.64
2018-12-16T02:34:39.147Z,95414.42
2018-12-16T02:37:07.542Z,95414.54
2018-12-16T02:39:35.763Z,95407.94
2018-12-16T02:42:03.995Z,95404.44
2018-12-16T02:44:32.271Z,95397.04
2018-12-16T02:47:00.661Z,95395.06
2018-12-16T02:49:28.891Z,95391.95
2018-12-16T02:51:57.121Z,95397.50
2018-12-16T02:54:25.721Z,95396.06
2018-12-16T02:56:54.173Z,95370.27
2018-12-16T02:59:22.503Z,95383.27
2018-12-16T03:01:50.823Z,95380.17
2018-12-16T03:04:19.054Z,95385.58
2018-12-16T03:06:47.275Z,95377.77
2018-12-16T03:09:15.599Z,95382.47
2018-12-16T03:11:43.817Z,95379.45
2018-12-16T03:14:12.128Z,95383.03
2018-12-16T03:16:40.357Z,95381.84
2018-12-16T03:19:08.659Z,95380.27
2018-12-16T03:21:36.927Z,95377.43
2018-12-16T03:24:05.222Z,95379.20
2018-12-16T03:26:36.180Z,95372.52
2018-12-16T03:29:03.811Z,95376.92
2018-12-16T03:31:32.130Z,95380.94
2018-12-16T03:34:00.456Z,95373.03
2018-12-16T03:36:28.827Z,95358.94
2018-12-16T03:38:57.069Z,95356.27
2018-12-16T03:41:25.386Z,95346.21
2018-12-16T03:43:53.628Z,95340.11
2018-12-16T03:46:21.854Z,95345.70
2018-12-16T03:48:50.751Z,95353.11
2018-12-16T03:51:19.092Z,95357.97
2018-12-16T03:53:47.456Z,95351.20
2018-12-16T03:56:15.695Z,95343.33
2018-12-16T03:59:02.063Z,95343.03
2018-12-16T04:01:30.376Z,95344.00
2018-12-16T04:03:58.722Z,95337.92
2018-12-16T04:06:27.064Z,95341.47
2018-12-16T04:08:55.370Z,95336.80
2018-12-16T04:11:23.613Z,95329.66
2018-12-16T04:13:51.853Z,95323.38
2018-12-16T04:16:20.079Z,95301.94
2018-12-16T04:18:48.374Z,95320.87
2018-12-16T04:21:16.851Z,95313.06
2018-12-16T04:23:45.233Z,95328.55
2018-12-16T04:26:13.511Z,95322.88
2018-12-16T04:28:42.168Z,95323.55
2018-12-16T04:31:10.383Z,95324.04
2018-12-16T04:33:38.609Z,95324.94
2018-12-16T04:36:06.846Z,95324.45
2018-12-16T04:38:35.153Z,95332.11
2018-12-16T04:41:03.476Z,95334.30
2018-12-16T04:43:31.771Z,95344.91
2018-12-16T04:46:00.015Z,95343.72
2018-12-16T04:48:28.244Z,95333.70
2018-12-16T04:50:56.464Z,95335.26
2018-12-16T04:53:24.735Z,95325.38
2018-12-16T04:55:52.971Z,95326.30
2018-12-16T04:58:21.190Z,95320.52
2018-12-16T05:00:49.444Z,95320.94
2018-12-16T05:03:17.855Z,95321.39
2018-12-16T05:05:46.096Z,95323.34
2018-12-16T05:08:14.368Z,95322.06
2018-12-16T05:10:42.640Z,95318.85
2018-12-16T05:13:10.965Z,95309.00
2018-12-16T05:15:39.335Z,95313.63
2018-12-16T05:18:07.559Z,95310.68
2018-12-16T05:20:35.885Z,95308.63
2018-12-16T05:23:04.165Z,95310.27
2018-12-16T05:25:32.479Z,95308.33
2018-12-16T05:28:00.711Z,95311.98
2018-12-16T05:30:28.951Z,95313.78
2018-12-16T05:32:57.270Z,95305.08
2018-12-16T05:35:25.653Z,95304.44
2018-12-16T05:37:53.934Z,95305.16
2018-12-16T05:40:22.163Z,95302.61
2018-12-16T05:42:50.532Z,95301.53
2018-12-16T05:45:18.774Z,95306.77
2018-12-16T05:47:47.053Z,95301.20
2018-12-16T05:50:15.820Z,95305.05
2018-12-16T05:52:44.080Z,95305.30
2018-12-16T05:55:12.651Z,95309.19
2018-12-16T05:57:41.055Z,95312.40
2018-12-16T06:00:09.536Z,95310.79
2018-12-16T06:02:37.831Z,95304.26
2018-12-16T06:05:06.187Z,95297.28
2018-12-16T06:07:34.463Z,95294.78
2018-12-16T06:10:02.758Z,95298.92
2018-12-16T06:12:30.995Z,95292.64
2018-12-16T06:14:59.300Z,95288.62
2018-12-16T06:17:27.569Z,95286.05
2018-12-16T06:19:55.853Z,95280.12
2018-12-16T06:22:24.132Z,95280.30
2018-12-16T06:24:52.404Z,95276.50
2018-12-16T06:27:20.748Z,95274.89
2018-12-16T06:29:49.396Z,95275.67
2018-12-16T06:32:17.662Z,95265.22
2018-12-16T06:34:45.873Z,95258.36
2018-12-16T06:37:14.191Z,95255.94
2018-12-16T06:39:42.471Z,95261.20
2018-12-16T06:42:10.743Z,95251.20
2018-12-16T06:44:39.028Z,95246.05
2018-12-16T06:47:07.255Z,95255.12
2018-12-16T06:49:35.569Z,95258.81
2018-12-16T06:52:03.961Z,95251.98
2018-12-16T06:54:32.182Z,95252.87
2018-12-16T06:57:00.406Z,95257.83
2018-12-16T06:59:28.622Z,95253.84
2018-12-16T07:01:56.846Z,95246.58
2018-12-16T07:04:25.355Z,95239.17
2018-12-16T07:06:53.711Z,95234.25
2018-12-16T07:09:21.994Z,95240.84
2018-12-16T07:11:50.276Z,95243.72
2018-12-16T07:14:18.643Z,95240.00
2018-12-16T07:16:46.921Z,95249.30
2018-12-16T07:19:15.149Z,95255.26
2018-12-16T07:21:43.472Z,95257.66
2018-12-16T07:24:11.812Z,95259.20
2018-12-16T07:26:40.128Z,95259.55
2018-12-16T07:29:08.443Z,95256.98
2018-12-16T07:31:36.790Z,95259.80
2018-12-16T07:34:05.532Z,95263.91
2018-12-16T07:36:33.863Z,95263.73
2018-12-16T07:39:02.167Z,95259.36
2018-12-16T07:41:30.526Z,95257.66
2018-12-16T07:43:58.815Z,95245.50
2018-12-16T07:46:27.151Z,95246.46
2018-12-16T07:48:55.701Z,95251.63
2018-12-16T07:51:24.124Z,95266.20
2018-12-16T07:53:52.432Z,95278.60
2018-12-16T07:56:20.654Z,95286.70
2018-12-16T07:58:49.059Z,95286.89
2018-12-16T08:01:17.590Z,95287.41
2018-12-16T08:03:45.924Z,95287.70
2018-12-16T08:06:14.183Z,95277.46
2018-12-16T08:08:42.667Z,95287.49
2018-12-16T08:11:10.939Z,95281.28
2018-12-16T08:13:39.200Z,95286.95
2018-12-16T08:16:07.456Z,95277.70
2018-12-16T08:18:35.679Z,95275.19
2018-12-16T08:21:04.051Z,95274.27
2018-12-16T08:23:32.310Z,95272.35
2018-12-16T08:26:00.564Z,95269.00
2018-12-16T08:28:28.788Z,95273.88
2018-12-16T08:30:57.181Z,95272.56
2018-12-16T08:33:25.401Z,95275.87
2018-12-16T08:35:53.619Z,95272.36
2018-12-16T08:38:21.882Z,95273.34
2018-12-16T08:40:50.103Z,95276.72
2018-12-16T08:43:18.434Z,95276.17
2018-12-16T08:45:46.671Z,95280.92
2018-12-16T08:48:14.991Z,95286.64
2018-12-16T08:50:43.209Z,95271.06
2018-12-16T08:53:11.574Z,95279.61
2018-12-16T08:55:39.860Z,95277.55
2018-12-16T08:58:08.091Z,95273.80
2018-12-16T09:00:36.390Z,95274.11
2018-12-16T09:03:04.740Z,95266.81
2018-12-16T09:05:33.115Z,95257.28
2018-12-16T09:08:01.391Z,95260.39
2018-12-16T09:10:34.029Z,95258.30
2018-12-16T09:13:00.226Z,95259.91
2018-12-16T09:15:28.486Z,95263.02
2018-12-16T09:17:56.711Z,95263.70
2018-12-16T09:20:24.958Z,95261.70
2018-12-16T09:22:53.181Z,95263.08
2018-12-16T09:25:21.547Z,95257.77
2018-12-16T09:27:49.854Z,95261.00
2018-12-16T09:30:18.107Z,95264.88
2018-12-16T09:32:46.442Z,95266.64
2018-12-16T09:35:14.886Z,95264.19
2018-12-16T09:37:43.169Z,95261.20
2018-12-16T09:40:11.392Z,95268.19
2018-12-16T09:42:39.626Z,95259.55
2018-12-16T09:45:07.912Z,95256.23
2018-12-16T09:47:36.406Z,95251.48
2018-12-16T09:50:05.062Z,95241.50
2018-12-16T09:52:33.344Z,95251.16
2018-12-16T09:55:02.570Z,95247.86
2018-12-16T09:57:30.886Z,95250.54
2018-12-16T09:59:59.162Z,95251.09
2018-12-16T10:02:27.669Z,95263.34
2018-12-16T10:04:55.924Z,95248.40
2018-12-16T10:07:24.446Z,95254.01
2018-12-16T10:09:53.148Z,95264.45
2018-12-16T10:12:21.505Z,95235.91
2018-12-16T10:14:49.796Z,95238.61
2018-12-16T10:17:18.090Z,95249.70
2018-12-16T10:19:46.525Z,95247.95
2018-12-16T10:22:14.743Z,95259.21
2018-12-16T10:24:43.198Z,95262.75
2018-12-16T10:27:11.563Z,95259.36
2018-12-16T10:29:40.067Z,95253.67
2018-12-16T10:32:08.286Z,95271.78
2018-12-16T10:34:36.715Z,95238.13
2018-12-16T10:37:04.969Z,95260.00
2018-12-16T10:39:33.191Z,95249.80
2018-12-16T10:42:01.447Z,95241.98
2018-12-16T10:44:29.657Z,95241.39
2018-12-16T10:46:57.888Z,95243.98
2018-12-16T10:49:26.109Z,95251.98
2018-12-16T10:51:54.418Z,95249.76
2018-12-16T10:54:22.810Z,95253.78
2018-12-16T10:56:51.240Z,95245.17
2018-12-16T10:59:19.598Z,95247.18
2018-12-16T11:01:47.839Z,95239.31
2018-12-16T11:04:16.103Z,95250.14
2018-12-16T11:06:44.365Z,95248.01
2018-12-16T11:09:12.637Z,95248.09
2018-12-16T11:11:40.892Z,95244.61
2018-12-16T11:14:09.207Z,95238.70
2018-12-16T11:16:37.502Z,95230.99
2018-12-16T11:19:05.767Z,95236.56
2018-12-16T11:21:34.050Z,95236.28
2018-12-16T11:24:02.262Z,95228.03
2018-12-16T11:26:30.564Z,95224.88
2018-12-16T11:28:58.779Z,95218.97
2018-12-16T11:31:27.019Z,95220.33
2018-12-16T11:33:55.332Z,95221.20
2018-12-16T11:36:23.601Z,95218.00
2018-12-16T11:38:51.878Z,95217.05
2018-12-16T11:41:20.176Z,95213.02
2018-12-16T11:43:48.394Z,95206.78
2018-12-16T11:46:16.823Z,95213.92
2018-12-16T11:48:45.010Z,95218.80
2018-12-16T11:51:13.223Z,95226.15
2018-12-16T11:53:41.503Z,95228.74
2018-12-16T11:56:09.817Z,95230.81
2018-12-16T11:58:38.035Z,95225.56
2018-12-16T12:01:06.327Z,95228.58
2018-12-16T12:03:34.524Z,95223.01
2018-12-16T12:06:02.790Z,95218.07
2018-12-16T12:08:31.196Z,95218.91
2018-12-16T12:10:59.428Z,95214.37
2018-12-16T12:13:27.674Z,95215.91
2018-12-16T12:15:56.041Z,95211.23
2018-12-16T12:18:24.287Z,95209.23
2018-12-16T12:20:52.578Z,95205.67
2018-12-16T12:23:20.854Z,95208.19
2018-12-16T12:25:49.331Z,95201.02
2018-12-16T12:28:17.892Z,95208.52
2018-12-16T12:30:46.147Z,95213.17
2018-12-16T12:33:14.609Z,95207.81
2018-12-16T12:35:42.855Z,95211.34
2018-12-16T12:38:11.128Z,95208.17
2018-12-16T12:40:39.422Z,95214.23
2018-12-16T12:43:07.706Z,95209.01
2018-12-16T12:45:35.992Z,95212.14
2018-12-16T12:48:04.279Z,95217.30
2018-12-16T12:50:32.649Z,95223.69
2018-12-16T12:53:01.083Z,95226.92
2018-12-16T12:55:29.345Z,95228.65
2018-12-16T12:57:57.591Z,95232.92
2018-12-16T13:00:25.892Z,95236.16
2018-12-16T13:02:54.300Z,95232.81
2018-12-16T13:05:23.451Z,95235.42
2018-12-16T13:07:51.725Z,95239.16
2018-12-16T13:10:20.107Z,95234.84
2018-12-16T13:12:48.403Z,95244.83
2018-12-16T13:15:16.782Z,95242.98
2018-12-16T13:17:44.996Z,95237.64
2018-12-16T13:20:13.334Z,95236.33
2018-12-16T13:22:41.726Z,95241.58
2018-12-16T13:25:34.730Z,95251.47
2018-12-16T13:27:58.778Z,95238.67
2018-12-16T13:30:27.068Z,95237.04
2018-12-16T13:32:55.282Z,95228.62
2018-12-16T13:35:23.533Z,95228.52
2018-12-16T13:37:52.001Z,95223.69
2018-12-16T13:40:20.239Z,95232.40
2018-12-16T13:42:48.531Z,95231.69
2018-12-16T13:45:16.820Z,95237.45
2018-12-16T13:47:45.070Z,95236.05
2018-12-16T13:50:13.455Z,95240.81
2018-12-16T13:52:41.724Z,95238.70
2018-12-16T13:55:09.970Z,95246.87
2018-12-16T13:57:38.571Z,95250.10
2018-12-16T14:00:07.905Z,95248.41
2018-12-16T14:02:36.376Z,95243.33
2018-12-16T14:05:06.367Z,95250.72
2018-12-16T14:07:34.637Z,95252.36
2018-12-16T14:10:03.141Z,95264.38
2018-12-16T14:12:31.409Z,95267.22
2018-12-16T14:14:59.652Z,95277.34
2018-12-16T14:17:27.908Z,95283.11
2018-12-16T14:19:56.869Z,95279.66
2018-12-16T14:22:25.144Z,95286.13
2018-12-16T14:24:53.375Z,95289.69
2018-12-16T14:27:21.691Z,95287.45
2018-12-16T14:29:49.919Z,95287.78
2018-12-16T14:32:18.267Z,95292.01
2018-12-16T14:34:46.511Z,95298.80
2018-12-16T14:37:15.303Z,95296.46
2018-12-16T14:39:43.524Z,95310.64
2018-12-16T14:42:11.951Z,95310.55
2018-12-16T14:44:40.370Z,95301.12
2018-12-16T14:47:08.621Z,95297.48
2018-12-16T14:49:36.923Z,95299.52
2018-12-16T14:52:05.247Z,95297.87
2018-12-16T14:54:33.721Z,95298.37
2018-12-16T14:57:01.999Z,95294.64
2018-12-16T14:59:30.217Z,95288.17
2018-12-16T15:01:58.472Z,95290.80
2018-12-16T15:04:27.567Z,95293.22
2018-12-16T15:06:55.940Z,95298.59
2018-12-16T15:09:24.261Z,95299.41
2018-12-16T15:11:52.567Z,95315.09
2018-12-16T15:14:20.858Z,95308.69
2018-12-16T15:16:49.173Z,95320.75
2018-12-16T15:19:17.522Z,95318.72
2018-12-16T15:21:45.740Z,95315.70
2018-12-16T15:24:14.075Z,95318.72
2018-12-16T15:26:42.385Z,95315.80
2018-12-16T15:29:10.595Z,95317.73
2018-12-16T15:31:38.806Z,95313.25
2018-12-16T15:34:07.044Z,95317.91
2018-12-16T15:36:35.368Z,95313.87
2018-12-16T15:41:49.458Z,95309.62
2018-12-16T15:44:17.810Z,95323.38
2018-12-16T15:46:46.088Z,95329.15
2018-12-16T15:49:14.412Z,95327.73
2018-12-16T15:51:42.751Z,95328.86
2018-12-16T15:54:11.038Z,95330.67
2018-12-16T15:56:39.247Z,95327.12
2018-12-16T15:59:07.598Z,95336.76
2018-12-16T16:01:35.810Z,95339.39
2018-12-16T16:04:04.108Z,95342.91
2018-12-16T16:06:32.327Z,95341.31
2018-12-16T16:09:00.551Z,95346.15
2018-12-16T16:11:28.819Z,95350.52
2018-12-16T16:13:57.127Z,95351.73
2018-12-16T16:16:25.372Z,95342.52
2018-12-16T16:18:53.584Z,95350.31
2018-12-16T16:21:23.504Z,95346.73
2018-12-16T16:23:51.974Z,95345.99
2018-12-16T16:26:20.183Z,95348.72
2018-12-16T16:28:48.416Z,95345.34
2018-12-16T16:31:16.679Z,95343.80
2018-12-16T16:33:44.891Z,95348.83
2018-12-16T16:36:13.115Z,95357.53
2018-12-16T16:38:41.330Z,95358.23
2018-12-16T16:41:09.738Z,95365.20
2018-12-16T16:43:37.983Z,95365.17
2018-12-16T16:46:06.271Z,95370.79
2018-12-16T16:48:34.463Z,95373.20
2018-12-16T16:51:02.791Z,95365.08
2018-12-16T16:53:31.039Z,95366.40
2018-12-16T16:55:59.250Z,95362.34
2018-12-16T16:58:27.468Z,95369.64
2018-12-16T17:00:55.726Z,95367.69
2018-12-16T17:03:23.934Z,95373.44
2018-12-16T17:05:52.174Z,95379.41
2018-12-16T17:08:20.476Z,95374.95
2018-12-16T17:10:48.767Z,95354.41
2018-12-16T17:13:18.214Z,95379.20
2018-12-16T17:15:46.427Z,95383.84
2018-12-16T17:18:14.660Z,95382.81
2018-12-16T17:20:42.874Z,95391.42
2018-12-16T17:23:11.318Z,95392.20
2018-12-16T17:25:39.709Z,95393.74
2018-12-16T17:28:08.104Z,95392.89
2018-12-16T17:30:36.370Z,95387.11
2018-12-16T17:33:04.749Z,95386.30
2018-12-16T17:35:32.980Z,95392.77
2018-12-16T17:38:01.229Z,95401.97
2018-12-16T17:40:29.546Z,95411.31
2018-12-16T17:42:57.819Z,95420.73
2018-12-16T17:45:26.092Z,95408.67
2018-12-16T17:47:54.338Z,95401.84
2018-12-16T17:50:22.539Z,95403.86
2018-12-16T17:52:50.912Z,95408.45
2018-12-16T17:55:19.168Z,95407.44
2018-12-16T17:57:47.463Z,95408.38
2018-12-16T18:00:15.802Z,95406.94
2018-12-16T18:02:44.071Z,95406.81
2018-12-16T18:05:12.374Z,95399.90
2018-12-16T18:07:40.739Z,95398.39
2018-12-16T18:10:09.034Z,95396.38
2018-12-16T18:12:37.247Z,95388.41
2018-12-16T18:15:08.794Z,95394.75
2018-12-16T18:17:37.002Z,95395.97
2018-12-16T18:20:08.027Z,95397.10
2018-12-16T18:22:36.252Z,95404.67
2018-12-16T18:25:04.662Z,95400.66
2018-12-16T18:27:32.966Z,95404.02
2018-12-16T18:30:01.227Z,95405.86
2018-12-16T18:32:29.513Z,95400.47
2018-12-16T18:34:57.747Z,95403.23
2018-12-16T18:37:26.010Z,95403.20
2018-12-16T18:39:54.355Z,95411.77
2018-12-16T18:42:22.566Z,95405.09
2018-12-16T18:44:50.880Z,95409.99
2018-12-16T18:47:19.243Z,95404.00
2018-12-16T18:49:47.467Z,95396.95
2018-12-16T18:52:15.715Z,95395.41
2018-12-16T18:54:44.017Z,95400.69
2018-12-16T18:57:12.369Z,95400.66
2018-12-16T18:59:40.685Z,95402.99
2018-12-16T19:02:09.031Z,95403.04
2018-12-16T19:04:37.315Z,95408.83
2018-12-16T19:07:05.673Z,95407.31
2018-12-16T19:09:33.935Z,95412.72
2018-12-16T19:12:02.243Z,95413.02
2018-12-16T19:14:30.909Z,95408.86
2018-12-16T19:16:59.263Z,95402.14
2018-12-16T19:19:27.816Z,95403.20
2018-12-16T19:21:56.170Z,95411.23
2018-12-16T19:24:24.385Z,95400.13
2018-12-16T19:26:58.262Z,95393.78
2018-12-16T19:29:22.893Z,95403.45
2018-12-16T19:31:51.303Z,95402.12
2018-12-16T19:34:19.522Z,95403.64
2018-12-16T19:36:47.728Z,95409.55
2018-12-16T19:39:15.981Z,95421.30
2018-12-16T19:41:44.320Z,95426.08
2018-12-16T19:44:12.622Z,95429.22
2018-12-16T19:46:40.933Z,95426.37
2018-12-16T19:49:09.274Z,95431.42
2018-12-16T19:51:37.479Z,95426.86
2018-12-16T19:54:05.808Z,95422.91
2018-12-16T19:56:34.083Z,95426.27
2018-12-16T19:59:02.747Z,95421.70
2018-12-16T20:01:31.081Z,95419.67
2018-12-16T20:04:05.096Z,95424.34
2018-12-16T20:06:38.883Z,95428.61
2018-12-16T20:09:07.435Z,95435.37
2018-12-16T20:11:35.691Z,95442.28
2018-12-16T20:14:04.235Z,95446.84
2018-12-16T20:16:32.763Z,95451.72
2018-12-16T20:19:01.077Z,95453.03
2018-12-16T20:21:29.383Z,95460.22
2018-12-16T20:23:57.718Z,95461.14
2018-12-16T20:26:25.923Z,95460.61
2018-12-16T20:28:54.184Z,95456.77
2018-12-16T20:31:22.559Z,95456.06
2018-12-16T20:33:50.882Z,95456.06
2018-12-16T20:36:19.143Z,95453.84
2018-12-16T20:38:47.534Z,95459.02
2018-12-16T20:41:15.772Z,95463.36
2018-12-16T20:43:44.216Z,95455.84
2018-12-16T20:46:12.615Z,95458.09
2018-12-16T20:48:40.899Z,95463.97
2018-12-16T20:51:09.167Z,95466.81
2018-12-16T20:53:37.615Z,95459.63
2018-12-16T20:56:05.866Z,95457.98
2018-12-16T20:58:34.149Z,95458.70
2018-12-16T21:03:46.870Z,95439.94
2018-12-16T21:06:15.570Z,95453.00
2018-12-16T21:08:43.909Z,95450.46
2018-12-16T21:11:17.599Z,95452.81
2018-12-16T21:13:51.539Z,95447.54
2018-12-16T21:16:25.461Z,95452.38
2018-12-16T21:18:53.723Z,95456.05
2018-12-16T21:21:22.042Z,95435.19
2018-12-16T21:23:50.298Z,95444.68
2018-12-16T21:26:18.658Z,95449.14
2018-12-16T21:28:47.131Z,95447.72
2018-12-16T21:31:15.365Z,95441.55
2018-12-16T21:33:43.706Z,95440.84
2018-12-16T21:36:11.926Z,95438.22
2018-12-16T21:38:40.200Z,95441.95
2018-12-16T21:41:08.486Z,95443.81
2018-12-16T21:43:36.865Z,95440.03
2018-12-16T21:46:05.152Z,95444.81
2018-12-16T21:48:33.727Z,95445.31
2018-12-16T21:51:01.958Z,95440.53
2018-12-16T21:53:30.211Z,95440.75
2018-12-16T21:55:58.471Z,95434.98
2018-12-16T21:58:26.741Z,95437.83
2018-12-16T22:00:54.955Z,95433.38
2018-12-16T22:03:23.199Z,95441.36
2018-12-16T22:05:51.455Z,95438.44
2018-12-16T22:08:19.717Z,95439.04
2018-12-16T22:10:48.209Z,95442.78
2018-12-16T22:13:16.446Z,95437.02
2018-12-16T22:15:44.667Z,95433.88
2018-12-16T22:18:12.922Z,95433.17
2018-12-16T22:20:41.163Z,95440.47
2018-12-16T22:23:09.415Z,95439.86
2018-12-16T22:25:38.338Z,95437.72
2018-12-16T22:28:06.560Z,95437.73
2018-12-16T22:30:35.018Z,95440.25
2018-12-16T22:33:03.242Z,95440.14
2018-12-16T22:35:31.566Z,95443.38
2018-12-16T22:37:59.791Z,95444.31
2018-12-16T22:40:28.407Z,95445.94
2018-12-16T22:42:56.970Z,95442.98
2018-12-16T22:45:26.207Z,95455.45
2018-12-16T22:47:54.431Z,95457.69
2018-12-16T22:50:22.863Z,95456.55
2018-12-16T22:52:51.339Z,95454.84
2018-12-16T22:55:19.607Z,95452.81
2018-12-16T22:57:48.186Z,95452.21
2018-12-16T23:00:17.518Z,95451.82
2018-12-16T23:02:45.862Z,95459.72
2018-12-16T23:05:14.110Z,95451.72
2018-12-16T23:07:42.323Z,95449.48
2018-12-16T23:10:10.538Z,95449.58
2018-12-16T23:12:38.796Z,95452.81
2018-12-16T23:15:07.259Z,95448.47
2018-12-16T23:17:35.629Z,95449.89
2018-12-16T23:20:10.695Z,95456.86
2018-12-16T23:22:38.950Z,95456.05
2018-12-16T23:25:07.468Z,95456.86
2018-12-16T23:27:35.715Z,95457.17
2018-12-16T23:30:05.911Z,95458.28
2018-12-16T23:32:34.139Z,95458.97
2018-12-16T23:35:02.577Z,95460.69
2018-12-16T23:37:31.065Z,95459.37
2018-12-16T23:39:59.527Z,95459.89
2018-12-16T23:42:27.767Z,95450.77
2018-12-16T23:44:56.078Z,95449.87
2018-12-16T23:47:24.339Z,95452.78
2018-12-16T23:49:52.788Z,95452.25
2018-12-16T23:52:21.010Z,95453.89
2018-12-16T23:54:49.756Z,95448.41
2018-12-16T23:57:17.983Z,95445.08
2018-12-16T23:59:46.364Z,95440.84
